sensor_id;sensor_type;location;lat;lon;timestamp;pressure;altitude;pressure_sealevel;temperature;humidity
39789;BME280;25478;42.626;23.320;2023-02-12T00:00:19;93945.16;;;-0.05;41.10
39789;BME280;25478;42.626;23.320;2023-02-12T00:02:46;93937.38;;;-0.05;41.15
39789;BME280;25478;42.626;23.320;2023-02-12T00:05:12;93941.69;;;-0.14;41.19
39789;BME280;25478;42.626;23.320;2023-02-12T00:07:37;93926.63;;;-0.12;41.37
39789;BME280;25478;42.626;23.320;2023-02-12T00:10:03;93942.22;;;-0.17;41.00
39789;BME280;25478;42.626;23.320;2023-02-12T00:12:29;93941.50;;;-0.04;39.79
39789;BME280;25478;42.626;23.320;2023-02-12T00:14:54;93945.31;;;-0.02;40.38
39789;BME280;25478;42.626;23.320;2023-02-12T00:17:20;93928.75;;;-0.01;41.20
39789;BME280;25478;42.626;23.320;2023-02-12T00:19:46;93938.25;;;0.04;40.58
39789;BME280;25478;42.626;23.320;2023-02-12T00:22:11;93935.84;;;0.08;41.08
39789;BME280;25478;42.626;23.320;2023-02-12T00:24:37;93941.41;;;0.01;41.19
39789;BME280;25478;42.626;23.320;2023-02-12T00:27:02;93945.72;;;0.06;40.80
39789;BME280;25478;42.626;23.320;2023-02-12T00:29:27;93937.00;;;0.02;41.21
39789;BME280;25478;42.626;23.320;2023-02-12T00:31:53;93940.25;;;0.07;41.03
39789;BME280;25478;42.626;23.320;2023-02-12T00:34:18;93938.16;;;0.09;41.00
39789;BME280;25478;42.626;23.320;2023-02-12T00:36:44;93929.91;;;0.07;40.85
39789;BME280;25478;42.626;23.320;2023-02-12T00:39:09;93924.53;;;0.04;41.42
39789;BME280;25478;42.626;23.320;2023-02-12T00:41:34;93926.75;;;0.10;41.51
39789;BME280;25478;42.626;23.320;2023-02-12T00:44:00;93910.53;;;0.05;41.34
39789;BME280;25478;42.626;23.320;2023-02-12T00:46:25;93903.06;;;0.03;41.30
39789;BME280;25478;42.626;23.320;2023-02-12T00:48:51;93909.78;;;0.04;41.24
39789;BME280;25478;42.626;23.320;2023-02-12T00:51:18;93895.97;;;0.09;40.45
39789;BME280;25478;42.626;23.320;2023-02-12T00:53:43;93897.41;;;0.15;40.61
39789;BME280;25478;42.626;23.320;2023-02-12T00:56:09;93889.16;;;0.13;40.65
39789;BME280;25478;42.626;23.320;2023-02-12T00:58:34;93884.28;;;0.11;40.11
39789;BME280;25478;42.626;23.320;2023-02-12T01:01:00;93897.09;;;0.16;40.42
39789;BME280;25478;42.626;23.320;2023-02-12T01:03:25;93904.31;;;0.19;40.08
39789;BME280;25478;42.626;23.320;2023-02-12T01:05:51;93866.03;;;0.16;40.80
39789;BME280;25478;42.626;23.320;2023-02-12T01:08:18;93880.44;;;0.22;40.38
39789;BME280;25478;42.626;23.320;2023-02-12T01:10:44;93877.94;;;0.17;40.95
39789;BME280;25478;42.626;23.320;2023-02-12T01:13:13;93863.28;;;0.13;40.87
39789;BME280;25478;42.626;23.320;2023-02-12T01:15:38;93867.84;;;0.16;40.60
39789;BME280;25478;42.626;23.320;2023-02-12T01:18:04;93865.19;;;0.21;40.25
39789;BME280;25478;42.626;23.320;2023-02-12T01:20:29;93883.47;;;0.24;39.64
39789;BME280;25478;42.626;23.320;2023-02-12T01:22:56;93878.97;;;0.30;40.54
39789;BME280;25478;42.626;23.320;2023-02-12T01:25:21;93893.84;;;0.24;40.78
39789;BME280;25478;42.626;23.320;2023-02-12T01:27:48;93897.88;;;0.17;40.59
39789;BME280;25478;42.626;23.320;2023-02-12T01:30:14;93911.41;;;0.14;41.30
39789;BME280;25478;42.626;23.320;2023-02-12T01:32:39;93919.75;;;0.11;41.22
39789;BME280;25478;42.626;23.320;2023-02-12T01:35:05;93900.94;;;0.05;42.08
39789;BME280;25478;42.626;23.320;2023-02-12T01:37:36;93908.25;;;0.03;42.39
39789;BME280;25478;42.626;23.320;2023-02-12T01:40:02;93909.66;;;-0.05;42.63
39789;BME280;25478;42.626;23.320;2023-02-12T01:42:28;93903.44;;;-0.04;42.86
39789;BME280;25478;42.626;23.320;2023-02-12T01:47:38;93892.13;;;-0.08;43.38
39789;BME280;25478;42.626;23.320;2023-02-12T01:50:05;93879.75;;;-0.11;43.18
39789;BME280;25478;42.626;23.320;2023-02-12T01:52:32;93882.63;;;-0.12;43.77
39789;BME280;25478;42.626;23.320;2023-02-12T01:54:59;93871.44;;;-0.08;43.32
39789;BME280;25478;42.626;23.320;2023-02-12T01:57:27;93859.72;;;-0.05;43.73
39789;BME280;25478;42.626;23.320;2023-02-12T01:59:54;93853.19;;;-0.03;43.75
39789;BME280;25478;42.626;23.320;2023-02-12T02:02:21;93860.19;;;-0.03;44.10
39789;BME280;25478;42.626;23.320;2023-02-12T02:04:47;93861.84;;;-0.07;44.36
39789;BME280;25478;42.626;23.320;2023-02-12T02:07:14;93870.38;;;-0.07;44.56
39789;BME280;25478;42.626;23.320;2023-02-12T02:09:40;93861.06;;;-0.08;45.16
39789;BME280;25478;42.626;23.320;2023-02-12T02:12:06;93852.81;;;-0.10;45.62
39789;BME280;25478;42.626;23.320;2023-02-12T02:14:51;93857.44;;;-0.07;45.78
39789;BME280;25478;42.626;23.320;2023-02-12T02:17:23;93861.44;;;-0.01;46.20
39789;BME280;25478;42.626;23.320;2023-02-12T02:25:31;93884.56;;;-0.04;47.46
39789;BME280;25478;42.626;23.320;2023-02-12T02:35:32;93880.44;;;-0.05;48.12
39789;BME280;25478;42.626;23.320;2023-02-12T02:40:45;93872.38;;;-0.17;48.73
39789;BME280;25478;42.626;23.320;2023-02-12T02:43:17;93879.09;;;-0.16;48.80
39789;BME280;25478;42.626;23.320;2023-02-12T02:45:51;93870.94;;;-0.10;48.52
39789;BME280;25478;42.626;23.320;2023-02-12T02:48:26;93881.03;;;-0.08;49.95
39789;BME280;25478;42.626;23.320;2023-02-12T02:50:57;93877.09;;;-0.06;49.29
39789;BME280;25478;42.626;23.320;2023-02-12T02:53:32;93881.59;;;0.03;49.69
39789;BME280;25478;42.626;23.320;2023-02-12T02:55:59;93884.47;;;0.01;50.01
39789;BME280;25478;42.626;23.320;2023-02-12T02:58:27;93883.97;;;-0.01;49.90
39789;BME280;25478;42.626;23.320;2023-02-12T03:00:59;93885.31;;;-0.04;49.98
39789;BME280;25478;42.626;23.320;2023-02-12T03:03:39;93881.19;;;-0.05;49.62
39789;BME280;25478;42.626;23.320;2023-02-12T03:06:11;93879.38;;;-0.04;50.49
39789;BME280;25478;42.626;23.320;2023-02-12T03:08:40;93877.34;;;0.07;52.19
39789;BME280;25478;42.626;23.320;2023-02-12T03:11:09;93880.44;;;0.09;51.82
39789;BME280;25478;42.626;23.320;2023-02-12T03:13:37;93879.28;;;0.15;51.72
39789;BME280;25478;42.626;23.320;2023-02-12T03:16:08;93873.25;;;0.19;52.05
39789;BME280;25478;42.626;23.320;2023-02-12T03:18:39;93875.91;;;0.28;52.76
39789;BME280;25478;42.626;23.320;2023-02-12T03:21:08;93875.53;;;0.35;52.09
39789;BME280;25478;42.626;23.320;2023-02-12T03:23:57;93876.09;;;0.32;51.83
39789;BME280;25478;42.626;23.320;2023-02-12T03:26:22;93874.66;;;0.39;51.59
39789;BME280;25478;42.626;23.320;2023-02-12T03:28:49;93874.47;;;0.36;51.02
39789;BME280;25478;42.626;23.320;2023-02-12T03:38:53;93865.75;;;0.32;51.43
39789;BME280;25478;42.626;23.320;2023-02-12T03:41:24;93860.38;;;0.28;51.10
39789;BME280;25478;42.626;23.320;2023-02-12T03:43:54;93859.91;;;0.26;50.87
39789;BME280;25478;42.626;23.320;2023-02-12T03:46:30;93873.41;;;0.23;50.38
39789;BME280;25478;42.626;23.320;2023-02-12T03:51:37;93865.84;;;0.26;49.97
39789;BME280;25478;42.626;23.320;2023-02-12T03:54:03;93873.13;;;0.24;49.42
39789;BME280;25478;42.626;23.320;2023-02-12T03:56:32;93865.09;;;0.26;49.16
39789;BME280;25478;42.626;23.320;2023-02-12T03:58:58;93873.88;;;0.25;49.44
39789;BME280;25478;42.626;23.320;2023-02-12T04:01:24;93876.88;;;0.32;48.45
39789;BME280;25478;42.626;23.320;2023-02-12T04:03:50;93883.88;;;0.32;48.96
39789;BME280;25478;42.626;23.320;2023-02-12T04:06:20;93874.28;;;0.32;48.43
39789;BME280;25478;42.626;23.320;2023-02-12T04:08:46;93868.53;;;0.35;48.67
39789;BME280;25478;42.626;23.320;2023-02-12T04:18:39;93879.56;;;0.27;49.18
39789;BME280;25478;42.626;23.320;2023-02-12T04:23:47;93887.81;;;0.29;48.60
39789;BME280;25478;42.626;23.320;2023-02-12T04:26:32;93882.72;;;0.24;49.40
39789;BME280;25478;42.626;23.320;2023-02-12T04:31:48;93890.59;;;0.19;49.47
39789;BME280;25478;42.626;23.320;2023-02-12T04:34:22;93907.56;;;0.11;49.90
39789;BME280;25478;42.626;23.320;2023-02-12T04:39:20;93899.91;;;-0.08;50.62
39789;BME280;25478;42.626;23.320;2023-02-12T04:41:47;93898.75;;;-0.15;50.96
39789;BME280;25478;42.626;23.320;2023-02-12T04:44:16;93904.38;;;-0.27;51.60
39789;BME280;25478;42.626;23.320;2023-02-12T04:46:42;93904.75;;;-0.34;51.68
39789;BME280;25478;42.626;23.320;2023-02-12T04:49:08;93909.53;;;-0.41;51.98
39789;BME280;25478;42.626;23.320;2023-02-12T04:51:37;93912.72;;;-0.30;51.27
39789;BME280;25478;42.626;23.320;2023-02-12T04:54:02;93920.88;;;-0.23;50.93
39789;BME280;25478;42.626;23.320;2023-02-12T04:56:28;93909.84;;;-0.15;51.23
39789;BME280;25478;42.626;23.320;2023-02-12T04:58:53;93919.56;;;-0.07;50.86
39789;BME280;25478;42.626;23.320;2023-02-12T05:01:22;93921.25;;;-0.02;50.90
39789;BME280;25478;42.626;23.320;2023-02-12T05:03:47;93914.78;;;0.01;51.04
39789;BME280;25478;42.626;23.320;2023-02-12T05:06:13;93920.41;;;0.03;51.07
39789;BME280;25478;42.626;23.320;2023-02-12T05:08:38;93912.34;;;0.04;51.01
39789;BME280;25478;42.626;23.320;2023-02-12T05:11:07;93916.97;;;0.07;50.44
39789;BME280;25478;42.626;23.320;2023-02-12T05:13:33;93925.22;;;0.09;50.57
39789;BME280;25478;42.626;23.320;2023-02-12T05:15:59;93922.63;;;0.09;50.44
39789;BME280;25478;42.626;23.320;2023-02-12T05:18:24;93914.38;;;0.07;50.62
39789;BME280;25478;42.626;23.320;2023-02-12T05:20:56;93912.84;;;0.06;50.31
39789;BME280;25478;42.626;23.320;2023-02-12T05:23:24;93919.06;;;0.05;50.51
39789;BME280;25478;42.626;23.320;2023-02-12T05:25:49;93921.66;;;0.05;50.71
39789;BME280;25478;42.626;23.320;2023-02-12T05:28:15;93928.75;;;-0.01;52.02
39789;BME280;25478;42.626;23.320;2023-02-12T05:30:40;93947.69;;;-0.19;53.28
39789;BME280;25478;42.626;23.320;2023-02-12T05:33:06;93947.59;;;-0.28;54.36
39789;BME280;25478;42.626;23.320;2023-02-12T05:35:33;93950.34;;;-0.38;56.74
39789;BME280;25478;42.626;23.320;2023-02-12T05:37:58;93954.69;;;-0.52;57.77
39789;BME280;25478;42.626;23.320;2023-02-12T05:40:23;93961.56;;;-0.61;58.37
39789;BME280;25478;42.626;23.320;2023-02-12T05:42:49;93947.69;;;-0.65;59.25
39789;BME280;25478;42.626;23.320;2023-02-12T05:45:14;93954.66;;;-0.66;59.52
39789;BME280;25478;42.626;23.320;2023-02-12T05:47:40;93959.13;;;-0.71;59.28
39789;BME280;25478;42.626;23.320;2023-02-12T05:50:05;93970.25;;;-0.71;59.70
39789;BME280;25478;42.626;23.320;2023-02-12T05:52:31;93966.13;;;-0.72;60.10
39789;BME280;25478;42.626;23.320;2023-02-12T05:54:56;93959.25;;;-0.63;61.28
39789;BME280;25478;42.626;23.320;2023-02-12T05:57:21;93958.50;;;-0.63;62.10
39789;BME280;25478;42.626;23.320;2023-02-12T05:59:47;93963.97;;;-0.65;62.77
39789;BME280;25478;42.626;23.320;2023-02-12T06:02:12;93960.31;;;-0.64;63.32
39789;BME280;25478;42.626;23.320;2023-02-12T06:04:37;93959.69;;;-0.55;63.40
39789;BME280;25478;42.626;23.320;2023-02-12T06:07:03;93976.53;;;-0.58;63.72
39789;BME280;25478;42.626;23.320;2023-02-12T06:09:28;93981.47;;;-0.62;64.10
39789;BME280;25478;42.626;23.320;2023-02-12T06:11:54;93969.41;;;-0.66;64.21
39789;BME280;25478;42.626;23.320;2023-02-12T06:14:19;93977.66;;;-0.64;65.32
39789;BME280;25478;42.626;23.320;2023-02-12T06:16:45;93967.78;;;-0.62;65.42
39789;BME280;25478;42.626;23.320;2023-02-12T06:19:11;93975.06;;;-0.64;65.49
39789;BME280;25478;42.626;23.320;2023-02-12T06:21:37;93970.19;;;-0.66;65.14
39789;BME280;25478;42.626;23.320;2023-02-12T06:24:02;93984.66;;;-0.65;65.55
39789;BME280;25478;42.626;23.320;2023-02-12T06:26:29;93981.84;;;-0.68;65.70
39789;BME280;25478;42.626;23.320;2023-02-12T06:28:54;93969.91;;;-0.64;65.95
39789;BME280;25478;42.626;23.320;2023-02-12T06:31:27;93970.19;;;-0.66;66.86
39789;BME280;25478;42.626;23.320;2023-02-12T06:33:53;93977.84;;;-0.61;67.02
39789;BME280;25478;42.626;23.320;2023-02-12T06:36:19;93978.72;;;-0.65;68.58
39789;BME280;25478;42.626;23.320;2023-02-12T06:38:45;93977.44;;;-0.68;69.54
39789;BME280;25478;42.626;23.320;2023-02-12T06:41:11;93995.41;;;-0.76;69.72
39789;BME280;25478;42.626;23.320;2023-02-12T06:43:36;93991.00;;;-0.76;70.55
39789;BME280;25478;42.626;23.320;2023-02-12T06:46:03;93990.78;;;-0.79;70.31
39789;BME280;25478;42.626;23.320;2023-02-12T06:48:29;93982.28;;;-0.80;70.53
39789;BME280;25478;42.626;23.320;2023-02-12T06:50:54;93984.28;;;-0.77;70.29
39789;BME280;25478;42.626;23.320;2023-02-12T06:53:20;93987.09;;;-0.73;69.97
39789;BME280;25478;42.626;23.320;2023-02-12T06:55:45;93981.34;;;-0.70;70.31
39789;BME280;25478;42.626;23.320;2023-02-12T06:58:10;93981.34;;;-0.70;69.95
39789;BME280;25478;42.626;23.320;2023-02-12T07:00:36;93980.59;;;-0.71;69.96
39789;BME280;25478;42.626;23.320;2023-02-12T07:03:01;93985.00;;;-0.71;69.66
39789;BME280;25478;42.626;23.320;2023-02-12T07:05:26;93985.47;;;-0.69;69.63
39789;BME280;25478;42.626;23.320;2023-02-12T07:07:52;93989.13;;;-0.70;69.75
39789;BME280;25478;42.626;23.320;2023-02-12T07:10:17;93983.47;;;-0.72;70.20
39789;BME280;25478;42.626;23.320;2023-02-12T07:12:43;93994.63;;;-0.77;70.92
39789;BME280;25478;42.626;23.320;2023-02-12T07:15:09;93987.38;;;-0.75;70.95
39789;BME280;25478;42.626;23.320;2023-02-12T07:17:34;93994.63;;;-0.77;70.67
39789;BME280;25478;42.626;23.320;2023-02-12T07:20:00;93982.34;;;-0.85;70.66
39789;BME280;25478;42.626;23.320;2023-02-12T07:22:25;93991.66;;;-0.84;70.83
39789;BME280;25478;42.626;23.320;2023-02-12T07:24:50;93989.84;;;-0.83;71.24
39789;BME280;25478;42.626;23.320;2023-02-12T07:27:16;93988.78;;;-0.82;71.38
39789;BME280;25478;42.626;23.320;2023-02-12T07:29:41;93983.88;;;-0.84;72.57
39789;BME280;25478;42.626;23.320;2023-02-12T07:32:06;93986.72;;;-0.86;72.79
39789;BME280;25478;42.626;23.320;2023-02-12T07:34:32;93988.06;;;-0.88;72.41
39789;BME280;25478;42.626;23.320;2023-02-12T07:36:59;93987.03;;;-0.87;73.63
39789;BME280;25478;42.626;23.320;2023-02-12T07:39:24;93989.88;;;-0.89;73.66
39789;BME280;25478;42.626;23.320;2023-02-12T07:41:50;93999.75;;;-0.91;73.07
39789;BME280;25478;42.626;23.320;2023-02-12T07:44:15;94011.97;;;-0.96;72.93
39789;BME280;25478;42.626;23.320;2023-02-12T07:46:41;94008.81;;;-0.93;73.44
39789;BME280;25478;42.626;23.320;2023-02-12T07:49:09;94013.50;;;-0.95;74.45
39789;BME280;25478;42.626;23.320;2023-02-12T07:51:36;94008.13;;;-0.99;73.86
39789;BME280;25478;42.626;23.320;2023-02-12T07:54:02;94000.41;;;-1.04;74.54
39789;BME280;25478;42.626;23.320;2023-02-12T07:56:28;94003.78;;;-1.03;74.66
39789;BME280;25478;42.626;23.320;2023-02-12T07:58:56;94011.31;;;-1.07;75.56
39789;BME280;25478;42.626;23.320;2023-02-12T08:01:27;94014.97;;;-1.08;75.47
39789;BME280;25478;42.626;23.320;2023-02-12T08:03:53;94016.25;;;-1.10;75.38
39789;BME280;25478;42.626;23.320;2023-02-12T08:06:19;94020.66;;;-1.11;75.78
39789;BME280;25478;42.626;23.320;2023-02-12T08:08:45;94017.59;;;-1.13;75.28
39789;BME280;25478;42.626;23.320;2023-02-12T08:11:12;94022.72;;;-1.08;75.82
39789;BME280;25478;42.626;23.320;2023-02-12T08:13:38;93964.59;;;-1.53;75.97
39789;BME280;25478;42.626;23.320;2023-02-12T08:16:04;94031.00;;;-1.11;76.45
39789;BME280;25478;42.626;23.320;2023-02-12T08:18:31;94036.16;;;-1.11;76.78
39789;BME280;25478;42.626;23.320;2023-02-12T08:21:04;94027.66;;;-1.11;76.75
39789;BME280;25478;42.626;23.320;2023-02-12T08:23:30;94030.03;;;-1.15;76.93
39789;BME280;25478;42.626;23.320;2023-02-12T08:26:09;94028.78;;;-1.18;77.19
39789;BME280;25478;42.626;23.320;2023-02-12T08:28:35;94038.59;;;-1.20;78.70
39789;BME280;25478;42.626;23.320;2023-02-12T08:31:02;94043.00;;;-1.20;78.17
39789;BME280;25478;42.626;23.320;2023-02-12T08:33:28;94042.66;;;-1.14;78.25
39789;BME280;25478;42.626;23.320;2023-02-12T08:36:06;94044.47;;;-1.14;77.69
39789;BME280;25478;42.626;23.320;2023-02-12T08:38:34;94051.47;;;-1.15;77.81
39789;BME280;25478;42.626;23.320;2023-02-12T08:41:00;94057.59;;;-1.10;78.54
39789;BME280;25478;42.626;23.320;2023-02-12T08:43:26;94050.00;;;-1.02;78.64
39789;BME280;25478;42.626;23.320;2023-02-12T08:45:52;94057.84;;;-1.07;78.76
39789;BME280;25478;42.626;23.320;2023-02-12T08:48:17;94062.00;;;-1.11;78.32
39789;BME280;25478;42.626;23.320;2023-02-12T08:50:44;94063.28;;;-1.08;78.67
39789;BME280;25478;42.626;23.320;2023-02-12T08:53:10;94071.28;;;-1.10;79.53
39789;BME280;25478;42.626;23.320;2023-02-12T08:55:35;94065.34;;;-1.10;79.71
39789;BME280;25478;42.626;23.320;2023-02-12T08:58:01;94064.81;;;-1.07;78.66
39789;BME280;25478;42.626;23.320;2023-02-12T09:00:27;94069.59;;;-0.96;78.75
39789;BME280;25478;42.626;23.320;2023-02-12T09:02:53;94072.31;;;-0.87;78.69
39789;BME280;25478;42.626;23.320;2023-02-12T09:05:18;94075.69;;;-0.87;78.66
39789;BME280;25478;42.626;23.320;2023-02-12T09:07:44;94069.97;;;-0.83;79.16
39789;BME280;25478;42.626;23.320;2023-02-12T09:10:09;94075.81;;;-0.78;78.64
39789;BME280;25478;42.626;23.320;2023-02-12T09:12:35;94079.69;;;-0.75;78.77
39789;BME280;25478;42.626;23.320;2023-02-12T09:15:00;94089.19;;;-0.71;78.63
39789;BME280;25478;42.626;23.320;2023-02-12T09:17:25;94085.06;;;-0.72;78.75
39789;BME280;25478;42.626;23.320;2023-02-12T09:19:52;94088.63;;;-0.68;79.52
39789;BME280;25478;42.626;23.320;2023-02-12T09:22:17;94087.09;;;-0.69;79.10
39789;BME280;25478;42.626;23.320;2023-02-12T09:24:43;94097.66;;;-0.65;79.09
39789;BME280;25478;42.626;23.320;2023-02-12T09:27:08;94094.16;;;-0.55;79.20
39789;BME280;25478;42.626;23.320;2023-02-12T09:29:33;94094.31;;;-0.47;78.83
39789;BME280;25478;42.626;23.320;2023-02-12T09:31:59;94093.06;;;-0.49;78.75
39789;BME280;25478;42.626;23.320;2023-02-12T09:34:26;94092.50;;;-0.46;79.40
39789;BME280;25478;42.626;23.320;2023-02-12T09:36:52;94086.56;;;-0.47;78.75
39789;BME280;25478;42.626;23.320;2023-02-12T09:39:17;94090.38;;;-0.44;79.47
39789;BME280;25478;42.626;23.320;2023-02-12T09:44:16;94097.53;;;-0.36;78.97
39789;BME280;25478;42.626;23.320;2023-02-12T09:51:57;94070.13;;;-0.37;78.47
39789;BME280;25478;42.626;23.320;2023-02-12T09:54:25;94086.50;;;-0.42;79.02
39789;BME280;25478;42.626;23.320;2023-02-12T09:56:56;94099.19;;;-0.45;78.79
39789;BME280;25478;42.626;23.320;2023-02-12T09:59:32;94090.19;;;-0.48;79.32
39789;BME280;25478;42.626;23.320;2023-02-12T10:01:59;94092.53;;;-0.51;79.80
39789;BME280;25478;42.626;23.320;2023-02-12T10:04:25;94090.88;;;-0.42;79.99
39789;BME280;25478;42.626;23.320;2023-02-12T10:07:00;94086.97;;;-0.40;79.28
39789;BME280;25478;42.626;23.320;2023-02-12T10:12:36;94106.97;;;-0.26;79.14
39789;BME280;25478;42.626;23.320;2023-02-12T10:15:14;94099.56;;;-0.14;79.18
39789;BME280;25478;42.626;23.320;2023-02-12T10:17:52;94099.69;;;-0.06;78.84
39789;BME280;25478;42.626;23.320;2023-02-12T10:26:14;94103.91;;;0.23;78.41
39789;BME280;25478;42.626;23.320;2023-02-12T10:28:17;94105.47;;;0.38;78.60
39789;BME280;25478;42.626;23.320;2023-02-12T10:30:50;94110.47;;;0.34;77.95
39789;BME280;25478;42.626;23.320;2023-02-12T10:33:19;94109.97;;;0.32;78.02
39789;BME280;25478;42.626;23.320;2023-02-12T10:35:58;94113.91;;;0.30;77.93
39789;BME280;25478;42.626;23.320;2023-02-12T10:38:28;94116.66;;;0.19;77.90
39789;BME280;25478;42.626;23.320;2023-02-12T10:40:56;94106.59;;;0.18;78.31
39789;BME280;25478;42.626;23.320;2023-02-12T10:43:26;94102.44;;;0.17;78.57
39789;BME280;25478;42.626;23.320;2023-02-12T10:45:51;94106.94;;;0.11;78.31
39789;BME280;25478;42.626;23.320;2023-02-12T10:50:46;94109.41;;;0.03;78.95
39789;BME280;25478;42.626;23.320;2023-02-12T10:53:19;94111.69;;;0.04;79.37
39789;BME280;25478;42.626;23.320;2023-02-12T10:55:45;94109.59;;;0.06;79.29
39789;BME280;25478;42.626;23.320;2023-02-12T10:58:21;94118.06;;;0.12;79.63
39789;BME280;25478;42.626;23.320;2023-02-12T11:00:48;94122.31;;;0.21;78.68
39789;BME280;25478;42.626;23.320;2023-02-12T11:03:20;94122.59;;;0.20;79.15
39789;BME280;25478;42.626;23.320;2023-02-12T11:05:46;94119.13;;;0.24;78.69
39789;BME280;25478;42.626;23.320;2023-02-12T11:08:25;94123.41;;;0.34;78.58
39789;BME280;25478;42.626;23.320;2023-02-12T11:10:52;94118.25;;;0.34;78.32
39789;BME280;25478;42.626;23.320;2023-02-12T11:13:22;94125.50;;;0.32;78.57
39789;BME280;25478;42.626;23.320;2023-02-12T11:15:49;94118.13;;;0.39;78.76
39789;BME280;25478;42.626;23.320;2023-02-12T11:18:21;94114.31;;;0.50;78.93
39789;BME280;25478;42.626;23.320;2023-02-12T11:20:57;94113.50;;;0.69;78.40
39789;BME280;25478;42.626;23.320;2023-02-12T11:26:00;94118.69;;;0.82;77.32
39789;BME280;25478;42.626;23.320;2023-02-12T11:28:25;94116.38;;;0.81;77.61
39789;BME280;25478;42.626;23.320;2023-02-12T11:31:33;94126.38;;;0.88;77.39
39789;BME280;25478;42.626;23.320;2023-02-12T11:33:39;94125.91;;;0.99;77.26
39789;BME280;25478;42.626;23.320;2023-02-12T11:36:22;94116.97;;;1.05;77.34
39789;BME280;25478;42.626;23.320;2023-02-12T11:38:50;94114.09;;;1.21;77.12
39789;BME280;25478;42.626;23.320;2023-02-12T11:41:27;94105.81;;;1.32;76.31
39789;BME280;25478;42.626;23.320;2023-02-12T11:43:59;94119.56;;;1.47;76.46
39789;BME280;25478;42.626;23.320;2023-02-12T11:46:25;94116.66;;;1.62;75.99
39789;BME280;25478;42.626;23.320;2023-02-12T11:48:51;94118.34;;;1.66;74.87
39789;BME280;25478;42.626;23.320;2023-02-12T11:51:21;94111.47;;;1.62;75.44
39789;BME280;25478;42.626;23.320;2023-02-12T11:53:50;94114.63;;;1.59;75.41
39789;BME280;25478;42.626;23.320;2023-02-12T11:56:17;94116.44;;;1.72;75.36
39789;BME280;25478;42.626;23.320;2023-02-12T11:58:42;94099.69;;;1.78;74.42
39789;BME280;25478;42.626;23.320;2023-02-12T12:01:17;94105.44;;;1.75;74.79
39789;BME280;25478;42.626;23.320;2023-02-12T12:09:04;94116.66;;;1.84;74.32
39789;BME280;25478;42.626;23.320;2023-02-12T12:11:40;94122.56;;;1.76;73.95
39789;BME280;25478;42.626;23.320;2023-02-12T12:14:12;94127.28;;;1.74;74.40
39789;BME280;25478;42.626;23.320;2023-02-12T12:16:41;94125.16;;;1.76;74.23
39789;BME280;25478;42.626;23.320;2023-02-12T12:19:33;94125.34;;;1.80;74.29
39789;BME280;25478;42.626;23.320;2023-02-12T12:22:26;94127.06;;;1.84;74.35
39789;BME280;25478;42.626;23.320;2023-02-12T12:25:39;94117.34;;;1.90;73.68
39789;BME280;25478;42.626;23.320;2023-02-12T12:32:53;94127.44;;;1.91;73.14
39789;BME280;25478;42.626;23.320;2023-02-12T12:35:21;94126.38;;;1.92;73.37
39789;BME280;25478;42.626;23.320;2023-02-12T12:40:41;94134.13;;;2.06;72.44
39789;BME280;25478;42.626;23.320;2023-02-12T12:43:20;94139.91;;;2.03;71.96
39789;BME280;25478;42.626;23.320;2023-02-12T12:48:55;94147.50;;;2.00;71.56
39789;BME280;25478;42.626;23.320;2023-02-12T13:17:22;94164.75;;;2.18;71.55
39789;BME280;25478;42.626;23.320;2023-02-12T13:22:20;94165.94;;;2.12;71.62
39789;BME280;25478;42.626;23.320;2023-02-12T13:27:17;94172.00;;;2.07;71.66
39789;BME280;25478;42.626;23.320;2023-02-12T13:29:48;94173.19;;;2.01;72.00
39789;BME280;25478;42.626;23.320;2023-02-12T13:32:26;94176.00;;;1.91;72.02
39789;BME280;25478;42.626;23.320;2023-02-12T13:34:53;94172.56;;;1.82;72.52
39789;BME280;25478;42.626;23.320;2023-02-12T13:37:23;94167.47;;;1.77;72.33
39789;BME280;25478;42.626;23.320;2023-02-12T13:39:50;94173.72;;;1.76;72.49
39789;BME280;25478;42.626;23.320;2023-02-12T13:42:49;94169.59;;;1.75;73.02
39789;BME280;25478;42.626;23.320;2023-02-12T13:56:09;94183.53;;;1.51;73.61
39789;BME280;25478;42.626;23.320;2023-02-12T13:58:37;94185.00;;;1.44;73.62
39789;BME280;25478;42.626;23.320;2023-02-12T14:01:45;94186.63;;;1.39;73.82
39789;BME280;25478;42.626;23.320;2023-02-12T14:03:51;94193.25;;;1.32;74.46
39789;BME280;25478;42.626;23.320;2023-02-12T14:06:17;94196.06;;;1.35;74.36
39789;BME280;25478;42.626;23.320;2023-02-12T14:08:52;94196.16;;;1.30;74.47
39789;BME280;25478;42.626;23.320;2023-02-12T14:11:22;94202.09;;;1.31;74.94
39789;BME280;25478;42.626;23.320;2023-02-12T14:13:57;94203.34;;;1.33;74.90
39789;BME280;25478;42.626;23.320;2023-02-12T14:21:39;94210.34;;;1.33;75.04
39789;BME280;25478;42.626;23.320;2023-02-12T14:26:49;94217.47;;;1.27;75.01
39789;BME280;25478;42.626;23.320;2023-02-12T14:29:17;94226.22;;;1.31;75.12
39789;BME280;25478;42.626;23.320;2023-02-12T14:31:45;94219.31;;;1.27;75.11
39789;BME280;25478;42.626;23.320;2023-02-12T14:36:36;94233.13;;;1.22;75.46
39789;BME280;25478;42.626;23.320;2023-02-12T14:41:54;94241.97;;;1.21;75.53
39789;BME280;25478;42.626;23.320;2023-02-12T14:46:54;94252.13;;;1.18;75.71
39789;BME280;25478;42.626;23.320;2023-02-12T14:49:43;94240.03;;;1.13;75.85
39789;BME280;25478;42.626;23.320;2023-02-12T14:54:36;94258.47;;;1.11;76.31
39789;BME280;25478;42.626;23.320;2023-02-12T14:57:10;94252.81;;;1.09;76.03
39789;BME280;25478;42.626;23.320;2023-02-12T14:59:38;94259.03;;;1.08;76.44
39789;BME280;25478;42.626;23.320;2023-02-12T15:02:04;94271.22;;;1.08;76.46
39789;BME280;25478;42.626;23.320;2023-02-12T15:04:33;94267.69;;;1.04;76.34
39789;BME280;25478;42.626;23.320;2023-02-12T15:07:07;94266.13;;;1.03;76.20
39789;BME280;25478;42.626;23.320;2023-02-12T15:09:35;94272.28;;;1.07;76.77
39789;BME280;25478;42.626;23.320;2023-02-12T15:14:54;94281.34;;;1.09;76.03
39789;BME280;25478;42.626;23.320;2023-02-12T15:17:25;94289.13;;;1.09;75.86
39789;BME280;25478;42.626;23.320;2023-02-12T15:19:56;94294.84;;;1.06;75.96
39789;BME280;25478;42.626;23.320;2023-02-12T15:22:34;94302.44;;;1.03;75.84
39789;BME280;25478;42.626;23.320;2023-02-12T15:25:13;94317.59;;;0.96;76.37